Terminal Aerodrome Forecast
Issued by NWS

Home | Current Version | Previous Version | Text Only | Print | Product List | Glossary On
Versions: 1 2 3 4 5 6 7 8 9 10 11 12 13 14 15 16
000
FTAK31 PAJN 281700
TAFAWG
TAF
PAWG 281720Z 2818/2918 00000KT P6SM VCSH FEW003 BKN035 OVC050
     FM282100 12008KT 6SM -RA BR FEW005 BKN030 OVC050
     FM290600 12005KT 5SM -RA BR SCT015 BKN025 OVC050
      AMD LTD TO CLD VIS AND WIND 2906/2915=

USA.gov is the U.S. government's official web portal to all federal, state and local government web resources and services.